Time;durP1;ratioP1;P1;durP2;ratioP2;P2;SDS_P1;SDS_P2;PMS_P1;PMS_P2;Temp;Humidity;BMP_temperature;BMP_pressure;BME280_temperature;BME280_humidity;BME280_pressure;Samples;Min_cycle;Max_cycle;Signal;HPM_P1;HPM_P2
2021/03/22 00:02:13;;;;;;;4.47;0.83;;;4.80;87.90;;;;;;4881973;29;20052;-73
2021/03/22 00:04:40;;;;;;;4.63;0.90;;;4.80;88.00;;;;;;4898293;29;20060;-72
2021/03/22 00:07:07;;;;;;;6.40;0.73;;;4.80;88.20;;;;;;4898582;29;20036;-72
2021/03/22 00:09:33;;;;;;;3.40;0.40;;;4.80;88.20;;;;;;4898088;29;20092;-73
2021/03/22 00:11:59;;;;;;;5.43;0.83;;;4.70;88.30;;;;;;4898579;29;20036;-72
2021/03/22 00:14:26;;;;;;;4.20;0.87;;;4.70;88.30;;;;;;4897887;29;20455;-73
2021/03/22 00:16:53;;;;;;;4.53;0.90;;;4.70;88.60;;;;;;4887534;29;20049;-73
2021/03/22 00:19:19;;;;;;;6.57;1.30;;;4.70;88.70;;;;;;4896719;29;20049;-73
2021/03/22 00:21:46;;;;;;;5.97;1.30;;;4.70;89.00;;;;;;4881838;29;20401;-73
2021/03/22 00:24:16;;;;;;;9.20;1.53;;;4.70;89.00;;;;;;4897811;29;20055;-73
2021/03/22 00:26:42;;;;;;;9.97;1.77;;;4.60;88.90;;;;;;4881436;29;20096;-73
2021/03/22 00:29:09;;;;;;;7.67;1.10;;;4.60;89.00;;;;;;4880782;29;20045;-69
2021/03/22 00:31:36;;;;;;;3.60;0.70;;;4.70;89.10;;;;;;4898048;29;20048;-69
2021/03/22 00:34:02;;;;;;;2.90;0.70;;;4.60;89.00;;;;;;4896594;29;20105;-69
2021/03/22 00:36:29;;;;;;;3.30;0.80;;;4.60;89.20;;;;;;4897388;29;20044;-70
2021/03/22 00:38:56;;;;;;;4.33;0.70;;;4.60;89.20;;;;;;4895780;29;20131;-70
2021/03/22 00:41:23;;;;;;;4.57;0.50;;;4.60;89.20;;;;;;4897933;29;20056;-71
2021/03/22 00:43:50;;;;;;;2.80;0.40;;;4.60;89.30;;;;;;4898016;29;20044;-69
2021/03/22 00:46:17;;;;;;;8.10;0.67;;;4.60;89.40;;;;;;4897284;29;20043;-74
2021/03/22 00:48:44;;;;;;;3.50;0.63;;;4.60;89.50;;;;;;4912393;29;20066;-74
2021/03/22 00:51:11;;;;;;;4.53;0.43;;;4.60;89.50;;;;;;4897870;29;20490;-74
2021/03/22 00:53:38;;;;;;;3.27;0.60;;;4.60;89.50;;;;;;4892460;29;20128;-74
2021/03/22 00:56:05;;;;;;;3.00;0.90;;;4.50;89.60;;;;;;4911111;29;20067;-74
2021/03/22 00:58:31;;;;;;;4.33;0.77;;;4.50;89.70;;;;;;4897081;29;20067;-74
2021/03/22 01:01:00;;;;;;;4.90;0.97;;;4.50;89.70;;;;;;4893905;29;20564;-74
2021/03/22 01:03:32;;;;;;;5.23;0.70;;;4.50;89.80;;;;;;4897531;29;20092;-74
2021/03/22 01:06:00;;;;;;;5.45;1.25;;;4.40;89.80;;;;;;4896587;29;20048;-74
2021/03/22 01:08:30;;;;;;;2.67;0.97;;;4.40;90.00;;;;;;4897294;29;20049;-74
2021/03/22 01:11:00;;;;;;;5.73;0.83;;;4.40;90.00;;;;;;4897889;29;20048;-74
2021/03/22 01:13:32;;;;;;;12.10;1.97;;;4.40;90.00;;;;;;4898338;29;20051;-74
2021/03/22 01:16:15;;;;;;;7.63;1.40;;;4.40;90.10;;;;;;4897906;29;20123;-74
2021/03/22 01:18:46;;;;;;;4.90;1.20;;;4.40;90.20;;;;;;4897914;29;20052;-74
2021/03/22 01:21:41;;;;;;;7.00;1.57;;;4.40;90.10;;;;;;4895911;29;20520;-74
2021/03/22 01:24:10;;;;;;;4.03;0.80;;;4.30;90.10;;;;;;4881443;29;20568;-74
2021/03/22 01:26:38;;;;;;;6.93;0.90;;;4.30;90.20;;;;;;4911676;29;20416;-74
2021/03/22 01:29:19;;;;;;;3.53;0.80;;;4.30;90.20;;;;;;4896637;29;20044;-74
2021/03/22 01:31:46;;;;;;;7.97;1.20;;;4.30;90.20;;;;;;4897543;29;20040;-74
2021/03/22 01:34:14;;;;;;;6.63;2.07;;;4.30;90.60;;;;;;4897603;29;20051;-74
2021/03/22 01:36:41;;;;;;;6.90;1.07;;;4.30;90.30;;;;;;4897254;29;20088;-74
2021/03/22 01:39:17;;;;;;;8.37;0.97;;;4.30;90.30;;;;;;4895668;29;20430;-75
2021/03/22 01:41:59;;;;;;;3.73;1.10;;;4.30;90.40;;;;;;4895725;29;20076;-74
2021/03/22 01:44:39;;;;;;;4.97;0.80;;;4.30;90.40;;;;;;4889384;29;20043;-74
2021/03/22 01:47:12;;;;;;;4.90;1.10;;;4.30;90.40;;;;;;4896307;29;20423;-73
2021/03/22 01:49:47;;;;;;;3.73;1.07;;;4.20;90.40;;;;;;4890071;29;20112;-74
2021/03/22 01:52:14;;;;;;;3.60;0.80;;;4.20;90.40;;;;;;4895667;29;20119;-74
2021/03/22 01:54:41;;;;;;;4.13;0.97;;;4.20;90.40;;;;;;4895945;29;20126;-74
2021/03/22 01:57:26;;;;;;;6.33;1.07;;;4.20;90.50;;;;;;4893878;29;20045;-75
2021/03/22 01:59:58;;;;;;;7.17;1.33;;;4.20;90.50;;;;;;4897433;29;20056;-75
2021/03/22 02:02:25;;;;;;;4.00;0.93;;;4.20;90.80;;;;;;4897251;29;20049;-75
2021/03/22 02:04:52;;;;;;;4.83;1.10;;;4.20;90.60;;;;;;4897389;29;20093;-74
2021/03/22 02:07:19;;;;;;;11.63;2.27;;;4.20;90.60;;;;;;4895628;29;20053;-74
2021/03/22 02:09:45;;;;;;;9.83;1.53;;;4.20;90.60;;;;;;4895609;29;20056;-74
2021/03/22 02:12:17;;;;;;;6.03;1.27;;;4.20;90.60;;;;;;4880196;29;20040;-73
2021/03/22 02:14:44;;;;;;;3.45;0.90;;;4.10;90.60;;;;;;4885732;29;20040;-74
2021/03/22 02:17:47;;;;;;;4.10;1.13;;;4.10;90.60;;;;;;4894089;29;20045;-73
2021/03/22 02:20:29;;;;;;;4.63;1.08;;;4.10;90.70;;;;;;4887451;29;20149;-74
2021/03/22 02:23:32;;;;;;;6.90;1.30;;;4.10;90.70;;;;;;4896885;29;20040;-73
2021/03/22 02:36:01;;;;;;;4.67;0.80;;;4.10;90.80;;;;;;5428947;23;20528;-69
2021/03/22 02:38:32;;;;;;;4.60;0.70;;;4.20;90.80;;;;;;4889224;29;20065;-69
2021/03/22 02:41:19;;;;;;;4.70;1.13;;;4.20;90.70;;;;;;4896237;29;20132;-69
2021/03/22 02:44:00;;;;;;;3.30;0.97;;;4.20;90.80;;;;;;4905706;29;20044;-69
2021/03/22 02:46:27;;;;;;;6.27;1.00;;;4.30;90.70;;;;;;4898375;29;20385;-69
2021/03/22 02:48:53;;;;;;;4.17;1.17;;;4.30;90.70;;;;;;4872200;29;20513;-69
2021/03/22 02:51:57;;;;;;;5.10;1.17;;;4.40;90.70;;;;;;4879539;29;20048;-68
2021/03/22 02:54:45;;;;;;;11.40;1.80;;;4.50;90.70;;;;;;4893231;29;20553;-69
2021/03/22 02:57:19;;;;;;;6.27;1.57;;;4.60;90.70;;;;;;4914024;29;20562;-69
2021/03/22 02:59:51;;;;;;;9.17;1.37;;;4.60;90.60;;;;;;4904213;29;20040;-69
2021/03/22 03:02:19;;;;;;;7.93;1.15;;;4.70;90.60;;;;;;4907666;29;20104;-69
2021/03/22 03:04:46;;;;;;;7.83;2.00;;;4.70;90.60;;;;;;4899065;29;20404;-69
2021/03/22 03:07:23;;;;;;;5.80;1.50;;;4.80;90.60;;;;;;4900986;29;20052;-69
2021/03/22 03:09:50;;;;;;;6.17;1.40;;;4.80;90.60;;;;;;4893271;29;20116;-69
2021/03/22 03:12:20;;;;;;;4.40;0.90;;;4.80;90.50;;;;;;4912986;29;20104;-69
2021/03/22 03:14:51;;;;;;;4.20;1.13;;;4.90;90.50;;;;;;4903182;29;20043;-69
2021/03/22 03:17:18;;;;;;;6.43;1.57;;;4.90;90.50;;;;;;4906207;29;20040;-69
2021/03/22 03:19:45;;;;;;;4.23;1.50;;;5.00;90.50;;;;;;4903641;29;20043;-69
2021/03/22 03:22:12;;;;;;;6.07;1.77;;;5.00;90.50;;;;;;4894417;29;20047;-69
2021/03/22 03:24:40;;;;;;;3.93;1.23;;;5.00;90.50;;;;;;4906037;29;20130;-69
2021/03/22 03:27:11;;;;;;;8.47;2.13;;;5.10;90.50;;;;;;4908853;29;20045;-69
2021/03/22 03:29:39;;;;;;;6.57;2.33;;;5.10;90.50;;;;;;4900138;29;20040;-69
2021/03/22 03:32:09;;;;;;;6.13;1.53;;;5.10;90.50;;;;;;4900537;29;20495;-69
2021/03/22 03:34:36;;;;;;;6.00;1.37;;;5.10;90.50;;;;;;4887447;29;20059;-69
2021/03/22 03:37:03;;;;;;;5.53;1.50;;;5.20;90.50;;;;;;4885034;29;20052;-69
2021/03/22 03:39:30;;;;;;;7.30;1.50;;;5.20;90.50;;;;;;4891032;29;20283;-69
2021/03/22 03:41:56;;;;;;;6.50;2.20;;;5.20;90.50;;;;;;4892332;29;20330;-69
2021/03/22 03:44:23;;;;;;;10.47;2.23;;;5.20;90.50;;;;;;4890744;29;20079;-69
2021/03/22 03:46:49;;;;;;;6.70;1.83;;;5.20;90.50;;;;;;4888475;29;20049;-69
2021/03/22 03:49:16;;;;;;;5.67;1.80;;;5.20;90.50;;;;;;4894907;29;20139;-69
2021/03/22 03:51:43;;;;;;;4.50;1.87;;;5.20;90.50;;;;;;4886598;29;20108;-69
2021/03/22 03:54:10;;;;;;;7.13;2.23;;;5.20;90.50;;;;;;4876005;29;20041;-68
2021/03/22 03:56:37;;;;;;;6.23;1.90;;;5.30;90.50;;;;;;4872313;29;20049;-69
2021/03/22 03:59:05;;;;;;;8.33;2.37;;;5.30;90.50;;;;;;4876759;29;20036;-69
2021/03/22 04:01:32;;;;;;;9.00;2.47;;;5.30;90.60;;;;;;4882956;29;20076;-69
2021/03/22 04:03:59;;;;;;;13.30;3.67;;;5.30;90.60;;;;;;4895165;29;20049;-69
2021/03/22 04:06:28;;;;;;;8.80;2.17;;;5.20;90.60;;;;;;4869640;29;20059;-69
2021/03/22 04:09:01;;;;;;;8.17;2.80;;;5.30;90.60;;;;;;4886824;29;20048;-69
2021/03/22 04:11:40;;;;;;;8.45;1.98;;;5.30;90.60;;;;;;4874888;29;20057;-69
2021/03/22 04:14:12;;;;;;;9.70;2.83;;;5.30;90.60;;;;;;4894279;29;20049;-69
2021/03/22 04:16:39;;;;;;;7.63;2.05;;;5.30;90.60;;;;;;4874190;29;20049;-69
2021/03/22 04:19:06;;;;;;;5.73;1.63;;;5.30;90.60;;;;;;4871853;29;20045;-69
2021/03/22 04:21:33;;;;;;;4.20;1.10;;;5.40;90.60;;;;;;4863077;29;20454;-69
2021/03/22 04:24:01;;;;;;;6.33;1.50;;;5.40;90.60;;;;;;4882331;29;20041;-69
2021/03/22 04:26:27;;;;;;;4.90;1.30;;;5.40;90.60;;;;;;4877856;29;20113;-69
2021/03/22 04:28:54;;;;;;;4.53;1.47;;;5.40;90.60;;;;;;4879420;29;20406;-69
2021/03/22 04:31:24;;;;;;;4.90;1.70;;;5.50;90.60;;;;;;4882627;29;20071;-69
2021/03/22 04:33:52;;;;;;;5.30;1.50;;;5.50;90.60;;;;;;4877404;29;20063;-69
2021/03/22 04:36:21;;;;;;;8.33;2.93;;;5.50;90.60;;;;;;4889918;29;20508;-69
2021/03/22 04:38:48;;;;;;;5.10;1.20;;;5.50;90.60;;;;;;4878055;29;20044;-69
2021/03/22 04:41:15;;;;;;;4.60;1.33;;;5.50;90.60;;;;;;4876418;29;20552;-69
2021/03/22 04:43:42;;;;;;;4.17;1.17;;;5.60;90.60;;;;;;4888539;29;20126;-69
2021/03/22 04:46:09;;;;;;;4.30;1.40;;;5.60;90.60;;;;;;4889560;29;20053;-69
2021/03/22 04:48:54;;;;;;;4.37;1.63;;;5.60;90.60;;;;;;4887477;29;20037;-69
2021/03/22 04:51:21;;;;;;;7.23;2.43;;;5.50;90.60;;;;;;4879953;29;20038;-69
2021/03/22 04:53:48;;;;;;;6.80;2.00;;;5.50;90.60;;;;;;4867209;29;20433;-69
2021/03/22 04:56:18;;;;;;;6.33;1.80;;;5.50;90.60;;;;;;4863232;29;20042;-70
2021/03/22 04:58:45;;;;;;;6.43;1.90;;;5.50;90.60;;;;;;4889372;29;20073;-70
2021/03/22 05:01:12;;;;;;;9.47;2.60;;;5.60;90.60;;;;;;4878737;29;20415;-69
2021/03/22 05:03:39;;;;;;;7.27;2.30;;;5.50;90.60;;;;;;4882838;29;20045;-69
2021/03/22 05:06:06;;;;;;;6.27;2.10;;;5.50;90.60;;;;;;4890271;29;20106;-70
2021/03/22 05:08:33;;;;;;;5.93;2.03;;;5.60;90.70;;;;;;4881367;29;20060;-70
2021/03/22 05:11:01;;;;;;;10.43;2.70;;;5.60;90.70;;;;;;4880537;29;20045;-70
2021/03/22 05:13:31;;;;;;;12.37;3.37;;;5.50;90.70;;;;;;4887585;29;20064;-69
2021/03/22 05:15:59;;;;;;;10.97;3.43;;;5.50;90.70;;;;;;4881472;29;20057;-70
2021/03/22 05:18:30;;;;;;;7.10;2.60;;;5.50;90.80;;;;;;4876415;29;20101;-70
2021/03/22 05:21:03;;;;;;;7.80;2.37;;;5.50;90.80;;;;;;4881725;29;20048;-70
2021/03/22 05:23:30;;;;;;;7.63;2.47;;;5.50;90.90;;;;;;4882567;29;20049;-69
2021/03/22 05:25:58;;;;;;;7.67;2.53;;;5.50;90.80;;;;;;4879879;29;20044;-70
2021/03/22 05:28:27;;;;;;;6.07;2.13;;;5.50;90.80;;;;;;4887036;29;20508;-70
2021/03/22 05:30:54;;;;;;;5.73;1.60;;;5.50;90.80;;;;;;4883388;29;20045;-69
2021/03/22 05:33:22;;;;;;;4.93;1.90;;;5.50;90.90;;;;;;4867723;29;20049;-69
2021/03/22 05:35:52;;;;;;;6.53;2.20;;;5.50;90.90;;;;;;4869783;29;20041;-69
2021/03/22 05:38:20;;;;;;;5.27;1.40;;;5.50;90.90;;;;;;4897386;29;20044;-69
2021/03/22 05:41:08;;;;;;;4.30;1.50;;;5.50;90.90;;;;;;4884121;29;20560;-69
2021/03/22 05:43:45;;;;;;;5.97;1.47;;;5.50;90.90;;;;;;4888196;29;20056;-69
2021/03/22 05:46:33;;;;;;;5.33;1.33;;;5.50;90.90;;;;;;4881109;29;20089;-69
2021/03/22 05:49:19;;;;;;;6.57;1.33;;;5.50;90.90;;;;;;4882825;29;20109;-69
2021/03/22 05:52:04;;;;;;;3.87;1.10;;;5.50;90.90;;;;;;4879767;29;20041;-69
2021/03/22 05:54:52;;;;;;;7.40;1.80;;;5.50;91.00;;;;;;4892438;29;20048;-69
2021/03/22 05:57:22;;;;;;;5.80;1.90;;;5.50;91.00;;;;;;4884725;29;20037;-70
2021/03/22 05:59:49;;;;;;;4.27;1.33;;;5.50;91.00;;;;;;4878377;29;20038;-70
2021/03/22 06:02:38;;;;;;;7.00;1.03;;;5.50;91.10;;;;;;4868623;29;20041;-70
2021/03/22 06:05:13;;;;;;;2.67;0.87;;;5.50;91.10;;;;;;4884553;29;20444;-70
2021/03/22 06:07:45;;;;;;;3.67;0.70;;;5.50;91.10;;;;;;4895253;29;20096;-72
2021/03/22 06:10:18;;;;;;;3.07;0.70;;;5.50;91.10;;;;;;4882065;29;20509;-70
2021/03/22 06:12:58;;;;;;;2.40;0.70;;;5.60;91.10;;;;;;4875164;29;20041;-71
2021/03/22 06:15:36;;;;;;;5.40;1.13;;;5.60;91.10;;;;;;4899992;29;20061;-70
2021/03/22 06:18:33;;;;;;;3.73;1.10;;;5.60;91.10;;;;;;4877514;29;20037;-71
2021/03/22 06:21:11;;;;;;;3.90;1.00;;;5.70;91.10;;;;;;4890957;29;20037;-69
2021/03/22 06:23:40;;;;;;;6.27;1.73;;;5.60;91.00;;;;;;4877533;29;20489;-71
2021/03/22 06:26:39;;;;;;;6.20;1.20;;;5.70;91.10;;;;;;4888763;29;20496;-70
2021/03/22 06:29:23;;;;;;;3.80;1.00;;;5.80;91.10;;;;;;4877563;29;20049;-69
2021/03/22 06:31:54;;;;;;;6.50;1.20;;;5.80;91.00;;;;;;4886776;29;20041;-70
2021/03/22 06:34:35;;;;;;;5.27;1.57;;;5.80;91.00;;;;;;4869201;29;20045;-71
2021/03/22 06:37:02;;;;;;;8.67;1.13;;;5.90;91.00;;;;;;4891479;29;20065;-69
2021/03/22 06:39:29;;;;;;;3.77;0.80;;;5.90;91.00;;;;;;4884137;29;20040;-69
2021/03/22 06:41:56;;;;;;;3.63;0.70;;;6.00;91.00;;;;;;4893461;29;20108;-69
2021/03/22 06:44:34;;;;;;;4.90;1.40;;;6.10;90.90;;;;;;4884735;29;20052;-70
2021/03/22 06:47:12;;;;;;;2.97;0.70;;;6.10;90.90;;;;;;4893834;29;20049;-69
2021/03/22 06:49:45;;;;;;;4.83;1.03;;;6.10;90.90;;;;;;4888585;29;20074;-69
2021/03/22 06:52:22;;;;;;;3.78;1.00;;;6.20;91.00;;;;;;4889823;29;20072;-69
2021/03/22 06:54:54;;;;;;;3.20;0.70;;;6.20;91.00;;;;;;4871388;29;20056;-69
2021/03/22 06:57:23;;;;;;;2.78;0.70;;;6.20;91.20;;;;;;4875862;29;20065;-69
2021/03/22 07:00:13;;;;;;;1.77;0.70;;;6.30;90.90;;;;;;4883048;29;20041;-69
2021/03/22 07:02:48;;;;;;;6.47;1.50;;;6.40;90.90;;;;;;4877098;29;20045;-69
2021/03/22 07:05:27;;;;;;;2.83;0.70;;;6.40;90.80;;;;;;4865965;29;20068;-69
2021/03/22 07:07:57;;;;;;;3.97;0.93;;;6.50;90.80;;;;;;4863543;29;20061;-69
2021/03/22 07:10:27;;;;;;;3.70;0.60;;;6.60;90.80;;;;;;4870592;29;20057;-69
2021/03/22 07:13:32;;;;;;;2.63;0.60;;;6.60;90.80;;;;;;4868835;29;20500;-69
2021/03/22 07:16:05;;;;;;;4.53;0.80;;;6.70;90.70;;;;;;4864602;29;20053;-71
2021/03/22 07:18:33;;;;;;;3.75;0.82;;;6.70;90.60;;;;;;4869658;29;20052;-69
2021/03/22 07:21:00;;;;;;;5.13;1.27;;;6.70;90.70;;;;;;4874078;29;20041;-70
2021/03/22 07:23:26;;;;;;;5.17;0.80;;;6.70;90.70;;;;;;4876354;29;20122;-69
2021/03/22 07:26:01;;;;;;;5.20;0.97;;;6.70;90.70;;;;;;4873488;29;20097;-72
2021/03/22 07:28:48;;;;;;;4.63;0.70;;;6.80;90.70;;;;;;4877159;29;20096;-72
2021/03/22 07:31:52;;;;;;;2.23;0.53;;;6.90;90.60;;;;;;4844725;29;20057;-73
2021/03/22 07:34:34;;;;;;;4.20;0.83;;;7.00;90.60;;;;;;4871483;29;20059;-72
2021/03/22 07:37:32;;;;;;;2.80;0.60;;;7.00;90.50;;;;;;4867980;29;20065;-72
2021/03/22 07:40:04;;;;;;;3.07;0.50;;;7.10;90.50;;;;;;4877083;29;20100;-73
2021/03/22 07:42:57;;;;;;;3.73;0.87;;;7.10;90.50;;;;;;4879264;29;20045;-72
2021/03/22 07:45:24;;;;;;;;;;;7.10;90.40;;;;;;4874755;29;20045;-74
2021/03/22 07:48:13;;;;;;;2.93;0.50;;;7.10;90.50;;;;;;4883309;29;20297;-73
2021/03/22 07:51:05;;;;;;;7.10;0.53;;;7.10;90.40;;;;;;4882910;29;20108;-73
2021/03/22 07:53:39;;;;;;;2.45;0.60;;;7.10;90.40;;;;;;4881531;29;20084;-75
2021/03/22 07:56:27;;;;;;;4.27;0.60;;;7.20;90.40;;;;;;4900584;29;20052;-74
2021/03/22 07:59:36;;;;;;;3.60;0.50;;;7.30;90.40;;;;;;4875013;29;20049;-74
2021/03/22 08:02:28;;;;;;;1.90;0.37;;;7.30;90.40;;;;;;4832386;29;20080;-73
2021/03/22 08:05:20;;;;;;;1.63;0.40;;;7.30;90.60;;;;;;4862101;29;20053;-74
2021/03/22 08:08:09;;;;;;;2.77;0.70;;;7.40;90.30;;;;;;4870594;29;20121;-73
2021/03/22 08:10:42;;;;;;;2.15;0.47;;;7.40;90.30;;;;;;4882460;29;20041;-75
2021/03/22 08:13:29;;;;;;;1.33;0.40;;;7.50;90.20;;;;;;4880609;29;20056;-73
2021/03/22 08:16:17;;;;;;;3.30;0.40;;;7.60;90.20;;;;;;4881107;29;20044;-73
2021/03/22 08:19:05;;;;;;;1.38;0.43;;;7.60;90.10;;;;;;4875136;29;21407;-74
2021/03/22 08:21:49;;;;;;;1.70;0.30;;;7.50;90.00;;;;;;4873992;29;20117;-73
2021/03/22 08:24:31;;;;;;;3.30;0.30;;;7.50;90.00;;;;;;4874226;29;20045;-73
2021/03/22 08:27:20;;;;;;;2.97;0.40;;;7.40;90.00;;;;;;4859569;29;20385;-73
2021/03/22 08:30:10;;;;;;;1.88;0.40;;;7.30;90.10;;;;;;4876833;29;20038;-73
2021/03/22 08:32:40;;;;;;;1.30;0.60;;;7.30;90.20;;;;;;4838856;29;20560;-73
2021/03/22 08:35:35;;;;;;;1.03;0.20;;;7.30;90.20;;;;;;4876529;29;20076;-70
2021/03/22 08:38:10;;;;;;;2.27;0.40;;;7.40;90.20;;;;;;4873625;29;20164;-69
2021/03/22 08:40:51;;;;;;;3.97;0.52;;;7.40;90.10;;;;;;4866878;29;20059;-69
2021/03/22 08:44:13;;;;;;;1.42;0.30;;;7.40;89.90;;;;;;4866108;29;20057;-69
2021/03/22 08:46:59;;;;;;;0.90;0.30;;;7.50;90.00;;;;;;4839472;29;20706;-69
2021/03/22 08:49:45;;;;;;;2.10;0.40;;;7.40;89.90;;;;;;4870745;29;20417;-69
2021/03/22 08:53:01;;;;;;;1.80;0.33;;;7.50;89.90;;;;;;4874513;29;20080;-69
2021/03/22 08:56:01;;;;;;;2.63;0.50;;;7.50;89.70;;;;;;4877788;29;20085;-69
2021/03/22 08:58:38;;;;;;;1.27;0.30;;;7.50;89.70;;;;;;4871666;29;20053;-69
2021/03/22 09:01:08;;;;;;;2.50;0.38;;;7.50;89.80;;;;;;4874553;29;20045;-70
2021/03/22 09:03:36;;;;;;;1.05;0.30;;;7.60;89.70;;;;;;4884400;29;20912;-69
2021/03/22 09:06:24;;;;;;;1.33;0.30;;;7.70;89.70;;;;;;4875696;29;20065;-70
2021/03/22 09:08:51;;;;;;;1.45;0.30;;;8.00;89.50;;;;;;4870082;29;20048;-73
2021/03/22 09:11:28;;;;;;;1.58;0.40;;;8.10;89.30;;;;;;4865202;29;20049;-73
2021/03/22 09:14:20;;;;;;;0.52;0.20;;;8.20;88.90;;;;;;4873211;29;20064;-73
2021/03/22 09:16:52;;;;;;;1.25;0.57;;;8.10;88.70;;;;;;4889720;29;20040;-73
2021/03/22 09:19:22;;;;;;;4.03;0.50;;;8.10;88.70;;;;;;4873479;29;20044;-73
2021/03/22 09:21:52;;;;;;;1.35;0.45;;;8.00;88.70;;;;;;4875652;29;20113;-73
2021/03/22 09:24:40;;;;;;;1.33;0.50;;;7.90;88.70;;;;;;4876834;29;20034;-73
2021/03/22 09:27:13;;;;;;;2.83;0.43;;;7.80;88.80;;;;;;4876670;29;20037;-73
2021/03/22 09:29:43;;;;;;;1.63;0.50;;;7.70;88.90;;;;;;4888855;29;20041;-70
2021/03/22 09:32:26;;;;;;;1.13;0.30;;;7.80;89.10;;;;;;4871160;29;20101;-69
2021/03/22 09:34:56;;;;;;;;;;;8.00;89.00;;;;;;4889403;29;20136;-73
2021/03/22 09:37:49;;;;;;;0.75;0.22;;;8.10;88.80;;;;;;4872528;29;19956;-73
2021/03/22 09:40:22;;;;;;;1.40;0.30;;;8.30;88.40;;;;;;4867437;29;20114;-73
2021/03/22 09:43:08;;;;;;;3.03;0.40;;;8.40;87.70;;;;;;4868644;29;20081;-72
2021/03/22 09:46:01;;;;;;;1.30;0.30;;;8.50;87.40;;;;;;4864645;29;20045;-72
2021/03/22 09:48:37;;;;;;;1.15;0.38;;;8.60;87.30;;;;;;4872217;29;20123;-73
2021/03/22 09:51:10;;;;;;;1.73;0.40;;;8.70;86.50;;;;;;4881865;29;20390;-71
2021/03/22 09:54:03;;;;;;;0.93;0.20;;;8.70;86.70;;;;;;4872455;29;20043;-69
2021/03/22 09:56:40;;;;;;;2.75;0.50;;;8.80;86.60;;;;;;4867355;29;20053;-69
2021/03/22 09:59:26;;;;;;;2.20;0.60;;;8.90;86.20;;;;;;4875652;29;20382;-69
2021/03/22 10:01:58;;;;;;;2.10;0.40;;;8.80;86.00;;;;;;4889050;29;20060;-69
2021/03/22 10:04:35;;;;;;;2.00;0.55;;;8.80;85.90;;;;;;4880074;29;20147;-73
2021/03/22 10:07:18;;;;;;;2.20;0.40;;;8.70;85.30;;;;;;4877304;29;20045;-70
2021/03/22 10:10:01;;;;;;;1.83;0.30;;;8.70;85.50;;;;;;4877223;29;20048;-70
2021/03/22 10:12:40;;;;;;;1.58;0.32;;;8.60;85.40;;;;;;4879665;29;20068;-70
2021/03/22 10:15:11;;;;;;;1.55;0.30;;;8.50;85.50;;;;;;4874184;29;21548;-73
2021/03/22 10:17:43;;;;;;;2.15;0.30;;;8.50;85.90;;;;;;4891407;29;20055;-72
2021/03/22 10:20:37;;;;;;;1.80;0.20;;;8.60;85.70;;;;;;4878943;29;20041;-73
2021/03/22 10:23:26;;;;;;;2.22;0.50;;;8.50;85.60;;;;;;4849448;29;20053;-73
2021/03/22 10:26:21;;;;;;;0.75;0.20;;;8.50;85.90;;;;;;4879058;29;20045;-73
2021/03/22 10:28:48;;;;;;;1.77;0.30;;;8.50;85.50;;;;;;4881489;29;20049;-73
2021/03/22 10:31:24;;;;;;;1.65;0.25;;;8.60;85.80;;;;;;4866519;29;20105;-73
2021/03/22 10:34:00;;;;;;;4.78;0.30;;;8.70;85.70;;;;;;4889578;29;20097;-73
2021/03/22 10:36:37;;;;;;;2.53;0.30;;;8.80;85.50;;;;;;4874200;29;20057;-73
2021/03/22 10:39:07;;;;;;;2.63;0.30;;;9.00;85.10;;;;;;4876544;29;20042;-73
2021/03/22 10:41:38;;;;;;;1.23;0.28;;;9.10;85.10;;;;;;4871448;29;20049;-73
2021/03/22 10:44:16;;;;;;;0.88;0.20;;;9.20;84.50;;;;;;4885058;29;20798;-72
2021/03/22 10:46:44;;;;;;;2.50;0.52;;;9.30;84.60;;;;;;4886613;29;20052;-69
2021/03/22 10:49:24;;;;;;;0.95;0.30;;;9.30;84.20;;;;;;4880305;29;20460;-70
2021/03/22 10:51:52;;;;;;;1.63;0.40;;;9.30;83.80;;;;;;4869711;29;20043;-70
2021/03/22 10:54:22;;;;;;;0.40;0.20;;;9.30;84.00;;;;;;4873175;29;20390;-69
2021/03/22 10:56:59;;;;;;;0.20;0.15;;;9.40;83.60;;;;;;4890630;29;20060;-69
2021/03/22 10:59:35;;;;;;;0.25;0.10;;;9.40;83.40;;;;;;4890540;29;20109;-71
2021/03/22 11:02:27;;;;;;;0.98;0.20;;;9.60;83.00;;;;;;4891434;29;20048;-70
2021/03/22 11:04:55;;;;;;;2.78;0.30;;;9.80;82.20;;;;;;4879432;29;20048;-70
2021/03/22 11:07:24;;;;;;;0.43;0.20;;;9.90;81.10;;;;;;4884618;29;20044;-68
2021/03/22 11:09:58;;;;;;;0.40;0.20;;;9.90;80.20;;;;;;4872689;29;20049;-70
2021/03/22 11:12:27;;;;;;;0.45;0.13;;;9.80;80.20;;;;;;4888220;29;20044;-69
2021/03/22 11:15:36;;;;;;;1.25;0.20;;;9.70;80.60;;;;;;4876899;29;20120;-69
2021/03/22 11:18:13;;;;;;;2.22;0.30;;;9.70;80.00;;;;;;4868758;29;20570;-69
2021/03/22 11:20:47;;;;;;;0.50;0.20;;;9.60;80.40;;;;;;4870236;29;20045;-69
2021/03/22 11:23:26;;;;;;;0.25;0.10;;;9.50;79.80;;;;;;4877060;29;20044;-71
2021/03/22 11:25:59;;;;;;;1.05;0.20;;;9.50;80.30;;;;;;4875541;29;20045;-70
2021/03/22 11:28:31;;;;;;;1.15;0.20;;;9.40;79.90;;;;;;4875936;29;20052;-70
2021/03/22 11:31:06;;;;;;;1.08;0.40;;;9.30;80.00;;;;;;4876135;29;20538;-69
2021/03/22 11:33:43;;;;;;;0.57;0.15;;;9.30;80.20;;;;;;4871963;29;20048;-69
2021/03/22 11:36:28;;;;;;;1.52;0.30;;;9.40;80.20;;;;;;4875996;29;20040;-70
2021/03/22 11:39:18;;;;;;;0.40;0.38;;;9.40;79.90;;;;;;4876279;29;20045;-69
2021/03/22 11:42:18;;;;;;;2.72;0.20;;;9.40;80.00;;;;;;4885857;29;20057;-69
2021/03/22 11:44:46;;;;;;;0.45;0.30;;;9.30;79.60;;;;;;4887879;29;20040;-69
2021/03/22 11:47:37;;;;;;;2.95;0.28;;;9.30;80.20;;;;;;4865280;29;20045;-72
2021/03/22 11:50:35;;;;;;;0.65;0.20;;;9.30;79.40;;;;;;4882206;29;20045;-72
2021/03/22 11:53:21;;;;;;;2.13;0.28;;;9.20;79.30;;;;;;4878707;29;20048;-73
2021/03/22 11:55:56;;;;;;;0.85;0.40;;;9.20;79.70;;;;;;4878371;29;20531;-69
2021/03/22 11:58:27;;;;;;;0.52;0.20;;;9.20;79.70;;;;;;4881223;29;20049;-69
2021/03/22 12:00:55;;;;;;;0.55;0.10;;;9.20;79.60;;;;;;4872720;29;20044;-69
2021/03/22 12:03:30;;;;;;;0.30;0.10;;;9.20;79.70;;;;;;4874762;29;20049;-69
2021/03/22 12:06:24;;;;;;;0.40;0.10;;;9.20;79.60;;;;;;4870372;29;20076;-69
2021/03/22 12:08:53;;;;;;;0.68;0.20;;;9.30;79.60;;;;;;4874596;29;20071;-69
2021/03/22 12:11:26;;;;;;;1.65;0.10;;;9.30;79.40;;;;;;4893115;29;20045;-72
2021/03/22 12:13:54;;;;;;;;;;;9.40;79.50;;;;;;4886807;29;20045;-72
2021/03/22 12:16:24;;;;;;;0.17;0.10;;;9.40;79.30;;;;;;4883644;29;19932;-72
2021/03/22 12:18:53;;;;;;;0.80;0.10;;;9.50;79.50;;;;;;4875711;29;20037;-72
2021/03/22 12:21:20;;;;;;;0.52;0.30;;;9.60;79.30;;;;;;4895290;29;20492;-72
2021/03/22 12:23:47;;;;;;;0.55;0.10;;;9.70;79.20;;;;;;4876601;29;20573;-69
2021/03/22 12:26:17;;;;;;;0.60;0.20;;;9.90;79.10;;;;;;4872328;29;20096;-69
2021/03/22 12:28:55;;;;;;;1.65;0.40;;;10.00;78.00;;;;;;4889087;29;20105;-69
2021/03/22 12:31:34;;;;;;;3.00;0.40;;;10.00;77.80;;;;;;4892101;29;20064;-69
2021/03/22 12:34:05;;;;;;;0.98;0.30;;;10.20;77.90;;;;;;4869300;29;20037;-69
2021/03/22 12:36:34;;;;;;;0.08;0.00;;;10.30;77.30;;;;;;4878115;29;20045;-70
2021/03/22 12:39:24;;;;;;;1.58;0.20;;;10.40;77.10;;;;;;4890175;29;20076;-73
2021/03/22 12:41:56;;;;;;;0.60;0.20;;;10.50;76.10;;;;;;4868792;29;20052;-72
2021/03/22 12:44:24;;;;;;;1.30;0.13;;;10.50;76.10;;;;;;4869122;29;20040;-72
2021/03/22 12:46:50;;;;;;;1.27;0.20;;;10.50;75.50;;;;;;4876207;29;20040;-72
2021/03/22 12:49:19;;;;;;;1.90;0.20;;;10.40;74.10;;;;;;4858159;29;20573;-72
2021/03/22 12:51:46;;;;;;;0.52;0.13;;;10.40;73.50;;;;;;4868735;29;20462;-72
2021/03/22 12:54:12;;;;;;;0.50;0.10;;;10.40;73.20;;;;;;4892144;29;20528;-72
2021/03/22 12:56:40;;;;;;;1.08;0.10;;;10.40;73.50;;;;;;4887187;29;20517;-72
2021/03/22 12:59:40;;;;;;;2.65;0.20;;;10.50;73.70;;;;;;4891965;29;20663;-73
2021/03/22 13:02:27;;;;;;;0.43;0.20;;;10.50;72.30;;;;;;4878283;29;20043;-73
2021/03/22 13:04:54;;;;;;;0.25;0.10;;;10.50;73.10;;;;;;4867458;29;20064;-73
2021/03/22 13:07:22;;;;;;;0.25;0.10;;;10.50;72.80;;;;;;4840652;29;20525;-73
2021/03/22 13:09:49;;;;;;;0.10;0.10;;;10.50;73.30;;;;;;4879264;29;20082;-73
2021/03/22 13:12:29;;;;;;;0.25;0.03;;;10.60;73.30;;;;;;4870845;29;20396;-72
2021/03/22 13:14:57;;;;;;;0.60;0.10;;;10.60;73.10;;;;;;4890929;29;20495;-72
2021/03/22 13:17:32;;;;;;;0.20;0.00;;;10.70;73.40;;;;;;4867861;29;20084;-72
2021/03/22 13:20:00;;;;;;;0.70;0.15;;;10.70;73.30;;;;;;4876195;29;20370;-72
2021/03/22 13:22:31;;;;;;;1.25;0.10;;;10.60;72.80;;;;;;4876970;29;20806;-72
2021/03/22 13:25:03;;;;;;;1.02;0.30;;;10.60;73.00;;;;;;4883705;29;20112;-72
2021/03/22 13:27:29;;;;;;;0.20;0.10;;;10.50;73.00;;;;;;4882979;29;20076;-72
2021/03/22 13:29:56;;;;;;;0.40;0.20;;;10.50;72.60;;;;;;4869272;29;20114;-72
2021/03/22 13:32:23;;;;;;;0.20;0.20;;;10.40;71.40;;;;;;4875547;29;20544;-72
2021/03/22 13:34:50;;;;;;;1.80;0.45;;;10.40;71.50;;;;;;4879333;29;20101;-72
2021/03/22 13:37:20;;;;;;;1.17;0.50;;;10.40;71.40;;;;;;4878324;29;20068;-73
2021/03/22 13:39:48;;;;;;;0.25;0.10;;;10.50;71.40;;;;;;4895793;29;20069;-73
2021/03/22 13:42:15;;;;;;;1.38;0.20;;;10.50;71.20;;;;;;4869774;29;20052;-73
2021/03/22 13:44:41;;;;;;;0.93;0.20;;;10.60;71.40;;;;;;4875606;29;20415;-73
2021/03/22 13:47:09;;;;;;;0.98;0.50;;;10.50;71.20;;;;;;4879781;29;20045;-72